createdAt,value
2023-04-15T00:01:00.017Z,98888.22
2023-04-15T00:03:29.904Z,98892.00
2023-04-15T00:05:59.882Z,98895.28
2023-04-15T00:08:30.210Z,98890.91
2023-04-15T00:11:03.073Z,98888.87
2023-04-15T00:13:35.598Z,98888.75
2023-04-15T00:16:03.763Z,98887.66
2023-04-15T00:18:32.788Z,98880.72
2023-04-15T00:21:01.311Z,98872.31
2023-04-15T00:23:29.439Z,98880.31
2023-04-15T00:25:58.378Z,98886.31
2023-04-15T00:28:27.682Z,98886.84
2023-04-15T00:30:56.576Z,98894.19
2023-04-15T00:33:25.546Z,98884.41
2023-04-15T00:35:54.071Z,98881.44
2023-04-15T00:38:22.179Z,98872.44
2023-04-15T00:40:50.901Z,98878.56
2023-04-15T00:43:19.278Z,98875.03
2023-04-15T00:45:47.660Z,98869.72
2023-04-15T00:48:16.659Z,98871.59
2023-04-15T00:50:44.873Z,98869.72
2023-04-15T00:53:13.073Z,98870.78
2023-04-15T00:55:42.548Z,98875.03
2023-04-15T00:58:11.391Z,98873.09
2023-04-15T01:00:40.937Z,98874.47
2023-04-15T01:03:10.017Z,98861.28
2023-04-15T01:05:38.983Z,98870.94
2023-04-15T01:08:08.332Z,98871.06
2023-04-15T01:10:37.927Z,98867.50
2023-04-15T01:13:06.314Z,98852.84
2023-04-15T01:15:36.324Z,98854.50
2023-04-15T01:18:05.406Z,98858.84
2023-04-15T01:20:35.252Z,98870.00
2023-04-15T01:23:03.641Z,98877.16
2023-04-15T01:25:33.742Z,98861.00
2023-04-15T01:28:02.456Z,98862.59
2023-04-15T01:30:34.807Z,98856.47
2023-04-15T01:33:03.809Z,98864.69
2023-04-15T01:35:37.364Z,98868.84
2023-04-15T01:38:07.676Z,98866.16
2023-04-15T01:40:36.094Z,98871.72
2023-04-15T01:43:04.672Z,98863.56
2023-04-15T01:45:33.349Z,98861.00
2023-04-15T01:48:01.660Z,98863.56
2023-04-15T01:50:30.107Z,98868.84
2023-04-15T01:52:58.617Z,98867.38
2023-04-15T01:55:27.089Z,98868.34
2023-04-15T01:57:56.103Z,98865.63
2023-04-15T02:00:25.068Z,98873.09
2023-04-15T02:02:54.037Z,98869.12
2023-04-15T02:05:22.399Z,98863.56
2023-04-15T02:07:50.835Z,98880.81
2023-04-15T02:10:19.697Z,98874.88
2023-04-15T02:12:48.004Z,98875.41
2023-04-15T02:15:16.663Z,98871.47
2023-04-15T02:17:46.112Z,98869.16
2023-04-15T02:20:18.247Z,98872.44
2023-04-15T02:22:47.339Z,98869.44
2023-04-15T02:25:17.265Z,98872.44
2023-04-15T02:27:46.119Z,98872.16
2023-04-15T02:30:15.048Z,98869.28
2023-04-15T02:32:45.193Z,98869.69
2023-04-15T02:35:13.935Z,98866.56
2023-04-15T02:37:45.780Z,98862.59
2023-04-15T02:40:14.286Z,98863.00
2023-04-15T02:42:44.346Z,98866.53
2023-04-15T02:45:13.011Z,98866.28
2023-04-15T02:47:41.986Z,98855.53
2023-04-15T02:50:13.284Z,98853.09
2023-04-15T02:52:42.933Z,98859.34
2023-04-15T02:55:11.691Z,98869.44
2023-04-15T02:57:41.255Z,98871.06
2023-04-15T03:00:11.913Z,98889.84
2023-04-15T03:02:42.218Z,98888.19
2023-04-15T03:05:14.829Z,98879.91
2023-04-15T03:07:44.010Z,98881.56
2023-04-15T03:10:12.278Z,98885.59
2023-04-15T03:12:41.234Z,98874.19
2023-04-15T03:15:10.490Z,98871.47
2023-04-15T03:17:38.865Z,98876.47
2023-04-15T03:20:07.954Z,98870.38
2023-04-15T03:22:36.799Z,98867.53
2023-04-15T03:25:05.367Z,98870.69
2023-04-15T03:27:34.104Z,98867.53
2023-04-15T03:30:03.362Z,98863.72
2023-04-15T03:32:32.508Z,98867.66
2023-04-15T03:35:00.921Z,98861.38
2023-04-15T03:37:29.588Z,98869.97
2023-04-15T03:39:57.809Z,98864.69
2023-04-15T03:42:26.189Z,98863.47
2023-04-15T03:44:54.660Z,98865.09
2023-04-15T03:47:23.087Z,98867.94
2023-04-15T03:49:51.471Z,98869.44
2023-04-15T03:52:20.041Z,98872.97
2023-04-15T03:54:48.142Z,98869.97
2023-04-15T03:57:16.494Z,98865.78
2023-04-15T03:59:44.932Z,98861.84
2023-04-15T04:02:13.212Z,98875.97
2023-04-15T04:04:41.811Z,98870.38
2023-04-15T04:07:16.087Z,98872.94
2023-04-15T04:09:47.046Z,98872.41
2023-04-15T04:12:15.806Z,98862.34
2023-04-15T04:14:43.950Z,98869.50
2023-04-15T04:17:12.542Z,98868.56
2023-04-15T04:19:40.994Z,98862.16
2023-04-15T04:22:09.392Z,98855.91
2023-04-15T04:24:37.897Z,98861.88
2023-04-15T04:27:06.337Z,98858.75
2023-04-15T04:29:34.476Z,98866.13
2023-04-15T04:32:03.368Z,98862.69
2023-04-15T04:34:32.578Z,98862.03
2023-04-15T04:37:00.840Z,98867.31
2023-04-15T04:39:29.391Z,98863.91
2023-04-15T04:41:57.944Z,98863.81
2023-04-15T04:44:26.278Z,98866.37
2023-04-15T04:46:54.846Z,98863.50
2023-04-15T04:49:23.097Z,98861.47
2023-04-15T04:51:51.517Z,98868.97
2023-04-15T04:54:20.146Z,98874.91
2023-04-15T04:56:48.500Z,98855.59
2023-04-15T04:59:17.030Z,98869.56
2023-04-15T05:01:46.994Z,98866.28
2023-04-15T05:04:15.395Z,98868.06
2023-04-15T05:06:43.796Z,98866.66
2023-04-15T05:09:12.498Z,98854.97
2023-04-15T05:11:40.840Z,98867.84
2023-04-15T05:14:09.073Z,98865.91
2023-04-15T05:16:37.866Z,98866.31
2023-04-15T05:19:06.306Z,98863.28
2023-04-15T05:21:34.609Z,98858.25
2023-04-15T05:24:03.236Z,98860.84
2023-04-15T05:26:31.601Z,98864.66
2023-04-15T05:29:00.275Z,98876.03
2023-04-15T05:31:29.042Z,98874.69
2023-04-15T05:33:57.288Z,98869.38
2023-04-15T05:36:26.021Z,98874.94
2023-04-15T05:38:54.582Z,98876.44
2023-04-15T05:41:22.726Z,98869.44
2023-04-15T05:43:51.554Z,98871.56
2023-04-15T05:46:20.118Z,98867.38
2023-04-15T05:48:48.534Z,98866.28
2023-04-15T05:51:16.909Z,98867.69
2023-04-15T05:53:46.160Z,98887.28
2023-04-15T05:56:14.361Z,98882.97
2023-04-15T05:58:42.584Z,98883.22
2023-04-15T06:01:11.249Z,98890.69
2023-04-15T06:03:40.406Z,98886.91
2023-04-15T06:06:08.799Z,98891.28
2023-04-15T06:08:37.495Z,98900.69
2023-04-15T06:11:06.208Z,98899.34
2023-04-15T06:13:35.045Z,98892.47
2023-04-15T06:16:04.321Z,98901.41
2023-04-15T06:18:33.130Z,98899.66
2023-04-15T06:21:01.338Z,98901.00
2023-04-15T06:23:30.251Z,98905.94
2023-04-15T06:25:58.606Z,98915.62
2023-04-15T06:28:27.102Z,98906.81
2023-04-15T06:30:56.471Z,98912.38
2023-04-15T06:33:25.112Z,98918.22
2023-04-15T06:35:53.512Z,98915.03
2023-04-15T06:38:22.178Z,98922.16
2023-04-15T06:40:50.553Z,98919.69
2023-04-15T06:43:18.786Z,98919.16
2023-04-15T06:45:47.633Z,98923.31
2023-04-15T06:48:16.657Z,98931.03
2023-04-15T06:50:45.324Z,98921.44
2023-04-15T06:53:13.799Z,98932.91
2023-04-15T06:55:42.427Z,98922.34
2023-04-15T06:58:10.919Z,98923.91
2023-04-15T07:00:39.535Z,98928.06
2023-04-15T07:03:11.113Z,98936.13
2023-04-15T07:05:39.726Z,98930.78
2023-04-15T07:08:08.401Z,98930.47
2023-04-15T07:10:37.139Z,98927.34
2023-04-15T07:13:05.951Z,98922.41
2023-04-15T07:15:35.031Z,98920.19
2023-04-15T07:18:03.570Z,98920.44
2023-04-15T07:20:31.860Z,98924.75
2023-04-15T07:23:00.783Z,98928.00
2023-04-15T07:25:28.900Z,98928.00
2023-04-15T07:27:57.341Z,98933.22
2023-04-15T07:30:26.158Z,98932.88
2023-04-15T07:32:54.498Z,98943.41
2023-04-15T07:35:23.466Z,98939.03
2023-04-15T07:37:52.282Z,98939.03
2023-04-15T07:40:20.485Z,98937.34
2023-04-15T07:42:49.543Z,98934.16
2023-04-15T07:45:18.138Z,98942.34
2023-04-15T07:47:46.316Z,98942.81
2023-04-15T07:50:14.828Z,98945.22
2023-04-15T07:52:44.433Z,98939.19
2023-04-15T07:55:12.495Z,98941.41
2023-04-15T07:57:40.844Z,98939.91
2023-04-15T08:00:09.903Z,98947.63
2023-04-15T08:02:41.642Z,98940.03
2023-04-15T08:05:11.092Z,98949.44
2023-04-15T08:07:39.767Z,98948.28
2023-04-15T08:10:08.913Z,98936.72
2023-04-15T08:12:37.704Z,98939.28
2023-04-15T08:15:08.278Z,98947.06
2023-04-15T08:17:36.653Z,98947.81
2023-04-15T08:20:06.093Z,98949.50
2023-04-15T08:22:34.538Z,98948.56
2023-04-15T08:25:03.578Z,98948.13
2023-04-15T08:27:32.162Z,98956.56
2023-04-15T08:30:02.088Z,98950.13
2023-04-15T08:32:32.600Z,98946.47
2023-04-15T08:35:00.814Z,98949.78
2023-04-15T08:37:28.995Z,98956.59
2023-04-15T08:39:57.713Z,98958.59
2023-04-15T08:42:33.977Z,98961.78
2023-04-15T08:45:05.349Z,98962.44
2023-04-15T08:47:34.502Z,98955.06
2023-04-15T08:50:04.429Z,98956.19
2023-04-15T08:52:33.049Z,98949.59
2023-04-15T08:55:03.279Z,98953.25
2023-04-15T08:57:33.663Z,98960.09
2023-04-15T09:00:05.666Z,98952.16
2023-04-15T09:02:34.747Z,98954.97
2023-04-15T09:05:05.027Z,98963.38
2023-04-15T09:07:35.921Z,98963.44
2023-04-15T09:10:05.453Z,98960.09
2023-04-15T09:12:37.729Z,98969.88
2023-04-15T09:15:07.263Z,98968.78
2023-04-15T09:17:35.617Z,98971.37
2023-04-15T09:20:11.435Z,98969.41
2023-04-15T09:22:41.641Z,98963.56
2023-04-15T09:25:18.750Z,98968.06
2023-04-15T09:27:58.298Z,98969.63
2023-04-15T09:30:28.700Z,98955.06
2023-04-15T09:33:08.609Z,98957.03
2023-04-15T09:35:37.333Z,98958.59
2023-04-15T09:38:09.951Z,98960.50
2023-04-15T09:40:42.049Z,98962.81
2023-04-15T09:43:13.105Z,98966.00
2023-04-15T09:45:51.938Z,98955.25
2023-04-15T09:48:28.982Z,98952.50
2023-04-15T09:51:01.859Z,98955.56
2023-04-15T09:53:34.512Z,98963.09
2023-04-15T09:56:03.273Z,98962.34
2023-04-15T09:58:35.109Z,98961.34
2023-04-15T10:01:05.257Z,98971.63
2023-04-15T10:03:36.931Z,98972.78
2023-04-15T10:06:05.815Z,98979.44
2023-04-15T10:08:35.166Z,98988.28
2023-04-15T10:11:05.351Z,98981.28
2023-04-15T10:13:36.084Z,98984.84
2023-04-15T10:16:08.905Z,98982.91
2023-04-15T10:18:43.012Z,98982.53
2023-04-15T10:21:13.953Z,98984.94
2023-04-15T10:23:42.979Z,98979.53
2023-04-15T10:26:12.754Z,98974.78
2023-04-15T10:28:41.757Z,98969.03
2023-04-15T10:31:15.166Z,98969.75
2023-04-15T10:33:44.528Z,98970.41
2023-04-15T10:36:13.361Z,98968.38
2023-04-15T10:38:44.020Z,98974.91
2023-04-15T10:41:19.550Z,98969.69
2023-04-15T10:44:02.759Z,98965.53
2023-04-15T10:46:46.747Z,98976.28
2023-04-15T10:49:17.176Z,98975.53
2023-04-15T10:51:51.316Z,98976.88
2023-04-15T10:54:25.358Z,98981.31
2023-04-15T10:57:06.674Z,98976.66
2023-04-15T10:59:39.405Z,98968.72
2023-04-15T11:02:09.062Z,98980.41
2023-04-15T11:05:07.530Z,98986.84
2023-04-15T11:07:42.009Z,98988.88
2023-04-15T11:10:31.370Z,98984.91
2023-04-15T11:13:01.258Z,98987.56
2023-04-15T11:15:38.046Z,98998.44
2023-04-15T11:18:16.973Z,98996.56
2023-04-15T11:21:00.224Z,99002.09
2023-04-15T11:23:41.087Z,98997.06
2023-04-15T11:26:12.321Z,99004.03
2023-04-15T11:28:43.941Z,99008.75
2023-04-15T11:31:17.908Z,99003.53
2023-04-15T11:33:55.238Z,98999.88
2023-04-15T11:36:28.047Z,99006.59
2023-04-15T11:38:59.089Z,99005.63
2023-04-15T11:41:27.332Z,99006.19
2023-04-15T11:43:55.694Z,98996.47
2023-04-15T11:46:31.404Z,99004.16
2023-04-15T11:49:00.263Z,99004.63
2023-04-15T11:51:32.970Z,99007.06
2023-04-15T11:54:01.460Z,99008.88
2023-04-15T11:56:30.042Z,99008.69
2023-04-15T11:59:02.407Z,99007.97
2023-04-15T12:01:47.224Z,99014.41
2023-04-15T12:04:20.155Z,99013.22
2023-04-15T12:06:50.691Z,99011.03
2023-04-15T12:09:20.539Z,99012.44
2023-04-15T12:11:50.325Z,99009.28
2023-04-15T12:14:24.847Z,99007.03
2023-04-15T12:16:58.687Z,99009.13
2023-04-15T12:19:28.957Z,99004.28
2023-04-15T12:22:00.924Z,99020.00
2023-04-15T12:24:32.812Z,99020.06
2023-04-15T12:27:06.188Z,99016.06
2023-04-15T12:29:36.268Z,99019.81
2023-04-15T12:32:09.162Z,99017.69
2023-04-15T12:34:45.172Z,99022.47
2023-04-15T12:37:14.419Z,99026.84
2023-04-15T12:39:45.359Z,99022.94
2023-04-15T12:42:15.063Z,99029.94
2023-04-15T12:44:43.846Z,99021.50
2023-04-15T12:47:13.213Z,99023.75
2023-04-15T12:49:41.906Z,99037.94
2023-04-15T12:52:10.594Z,99029.81
2023-04-15T12:54:39.733Z,99025.53
2023-04-15T12:57:07.983Z,99042.31
2023-04-15T12:59:36.777Z,99046.19
2023-04-15T13:02:05.378Z,99041.34
2023-04-15T13:04:34.140Z,99041.78
2023-04-15T13:07:02.915Z,99038.28
2023-04-15T13:09:31.571Z,99037.44
2023-04-15T13:12:00.394Z,99043.72
2023-04-15T13:14:29.144Z,99042.16
2023-04-15T13:16:58.142Z,99041.84
2023-04-15T13:19:26.975Z,99048.16
2023-04-15T13:21:56.470Z,99049.41
2023-04-15T13:24:24.628Z,99044.19
2023-04-15T13:26:53.722Z,99049.06
2023-04-15T13:29:22.336Z,99040.66
2023-04-15T13:31:50.592Z,99030.66
2023-04-15T13:34:19.207Z,99043.84
2023-04-15T13:36:47.830Z,99052.47
2023-04-15T13:39:16.109Z,99056.22
2023-04-15T13:41:44.470Z,99066.84
2023-04-15T13:44:13.632Z,99069.78
2023-04-15T13:46:42.677Z,99063.13
2023-04-15T13:49:11.399Z,99065.25
2023-04-15T13:51:40.646Z,99058.75
2023-04-15T13:54:09.227Z,99069.16
2023-04-15T13:56:37.537Z,99065.59
2023-04-15T13:59:06.824Z,99073.91
2023-04-15T14:01:35.826Z,99065.91
2023-04-15T14:04:04.896Z,99068.03
2023-04-15T14:06:33.420Z,99066.56
2023-04-15T14:09:01.603Z,99081.53
2023-04-15T14:11:30.568Z,99070.81
2023-04-15T14:13:59.216Z,99080.25
2023-04-15T14:16:27.516Z,99084.00
2023-04-15T14:18:56.520Z,99094.09
2023-04-15T14:21:26.406Z,99085.81
2023-04-15T14:23:54.933Z,99086.78
2023-04-15T14:26:23.549Z,99082.06
2023-04-15T14:28:52.004Z,99081.41
2023-04-15T14:31:20.275Z,99093.91
2023-04-15T14:33:49.287Z,99094.22
2023-04-15T14:36:17.830Z,99097.81
2023-04-15T14:38:48.533Z,99096.38
2023-04-15T14:41:17.428Z,99102.19
2023-04-15T14:43:46.059Z,99094.91
2023-04-15T14:46:14.577Z,99097.34
2023-04-15T14:48:43.692Z,99102.37
2023-04-15T14:51:12.063Z,99104.66
2023-04-15T14:53:41.149Z,99100.75
2023-04-15T14:56:10.325Z,99101.22
2023-04-15T14:58:38.748Z,99114.41
2023-04-15T15:01:06.975Z,99104.44
2023-04-15T15:03:36.007Z,99105.28
2023-04-15T15:06:04.384Z,99107.22
2023-04-15T15:08:33.401Z,99107.56
2023-04-15T15:11:01.829Z,99122.22
2023-04-15T15:13:30.250Z,99114.09
2023-04-15T15:15:58.428Z,99113.59
2023-04-15T15:18:27.555Z,99121.59
2023-04-15T15:20:55.914Z,99120.75
2023-04-15T15:23:24.547Z,99114.59
2023-04-15T15:25:53.309Z,99124.16
2023-04-15T15:28:22.354Z,99130.50
2023-04-15T15:30:50.539Z,99131.66
2023-04-15T15:33:19.336Z,99124.50
2023-04-15T15:35:47.589Z,99133.25
2023-04-15T15:38:16.424Z,99141.94
2023-04-15T15:40:44.822Z,99151.84
2023-04-15T15:43:13.095Z,99143.69
2023-04-15T15:45:41.514Z,99147.59
2023-04-15T15:48:10.086Z,99152.63
2023-04-15T15:50:38.506Z,99161.84
2023-04-15T15:53:07.118Z,99164.84
2023-04-15T15:55:35.794Z,99174.84
2023-04-15T15:58:04.581Z,99177.16
2023-04-15T16:00:32.988Z,99185.09
2023-04-15T16:03:07.160Z,99189.44
2023-04-15T16:05:36.503Z,99194.41
2023-04-15T16:08:05.925Z,99189.53
2023-04-15T16:10:34.089Z,99180.56
2023-04-15T16:13:02.913Z,99184.59
2023-04-15T16:15:32.011Z,99188.69
2023-04-15T16:18:00.624Z,99180.91
2023-04-15T16:20:28.956Z,99183.97
2023-04-15T16:22:59.081Z,99182.22
2023-04-15T16:25:27.519Z,99188.91
2023-04-15T16:28:03.517Z,99192.19
2023-04-15T16:30:41.682Z,99196.84
2023-04-15T16:33:10.211Z,99203.28
2023-04-15T16:35:38.778Z,99217.31
2023-04-15T16:38:07.799Z,99218.41
2023-04-15T16:40:37.365Z,99221.31
2023-04-15T16:43:11.918Z,99216.34
2023-04-15T16:45:39.979Z,99219.75
2023-04-15T16:48:08.764Z,99227.75
2023-04-15T16:50:37.672Z,99226.81
2023-04-15T16:53:06.473Z,99230.50
2023-04-15T16:55:34.876Z,99229.41
2023-04-15T16:58:04.636Z,99225.69
2023-04-15T17:00:36.123Z,99226.19
2023-04-15T17:03:06.262Z,99224.59
2023-04-15T17:05:35.415Z,99240.81
2023-04-15T17:08:04.810Z,99239.56
2023-04-15T17:10:33.359Z,99240.81
2023-04-15T17:13:01.757Z,99237.91
2023-04-15T17:15:30.025Z,99247.56
2023-04-15T17:17:58.749Z,99254.81
2023-04-15T17:20:26.976Z,99259.34
2023-04-15T17:22:55.854Z,99257.84
2023-04-15T17:25:27.671Z,99264.66
2023-04-15T17:27:55.879Z,99258.66
2023-04-15T17:30:24.454Z,99261.84
2023-04-15T17:32:52.827Z,99270.56
2023-04-15T17:35:23.303Z,99254.22
2023-04-15T17:37:52.042Z,99275.63
2023-04-15T17:40:21.474Z,99269.47
2023-04-15T17:42:49.964Z,99276.22
2023-04-15T17:45:18.786Z,99281.66
2023-04-15T17:47:48.053Z,99284.56
2023-04-15T17:50:16.443Z,99289.88
2023-04-15T17:52:48.569Z,99295.06
2023-04-15T17:55:17.268Z,99286.75
2023-04-15T17:57:46.496Z,99295.38
2023-04-15T18:00:15.106Z,99299.91
2023-04-15T18:02:43.929Z,99312.06
2023-04-15T18:05:12.931Z,99305.38
2023-04-15T18:07:41.754Z,99312.06
2023-04-15T18:10:11.246Z,99312.34
2023-04-15T18:12:43.569Z,99321.50
2023-04-15T18:15:12.221Z,99316.88
2023-04-15T18:17:40.709Z,99325.91
2023-04-15T18:20:09.558Z,99319.38
2023-04-15T18:22:37.918Z,99334.38
2023-04-15T18:25:06.939Z,99334.25
2023-04-15T18:27:39.379Z,99341.53
2023-04-15T18:30:10.074Z,99340.16
2023-04-15T18:32:39.553Z,99340.28
2023-04-15T18:35:08.510Z,99337.16
2023-04-15T18:37:36.637Z,99341.53
2023-04-15T18:40:06.741Z,99350.53
2023-04-15T18:42:35.509Z,99363.34
2023-04-15T18:45:04.277Z,99359.50
2023-04-15T18:47:33.319Z,99364.81
2023-04-15T18:50:01.860Z,99368.37
2023-04-15T18:52:31.958Z,99364.03
2023-04-15T18:55:03.201Z,99369.34
2023-04-15T18:57:34.544Z,99371.78
2023-04-15T19:00:04.698Z,99381.84
2023-04-15T19:02:33.290Z,99389.34
2023-04-15T19:05:04.196Z,99387.53
2023-04-15T19:07:33.328Z,99390.28
2023-04-15T19:10:03.371Z,99389.47
2023-04-15T19:12:31.751Z,99395.47
2023-04-15T19:15:03.283Z,99390.44
2023-04-15T19:17:32.140Z,99407.47
2023-04-15T19:20:00.949Z,99402.69
2023-04-15T19:22:30.514Z,99402.12
2023-04-15T19:24:59.113Z,99421.31
2023-04-15T19:27:28.024Z,99421.72
2023-04-15T19:29:56.478Z,99430.47
2023-04-15T19:32:25.169Z,99418.88
2023-04-15T19:34:54.056Z,99431.16
2023-04-15T19:37:22.354Z,99437.13
2023-04-15T19:39:50.970Z,99439.72
2023-04-15T19:42:19.779Z,99436.03
2023-04-15T19:44:48.371Z,99442.03
2023-04-15T19:47:17.043Z,99431.94
2023-04-15T19:49:45.816Z,99440.66
2023-04-15T19:52:14.492Z,99436.03
2023-04-15T19:54:43.404Z,99433.56
2023-04-15T19:57:12.274Z,99432.34
2023-04-15T19:59:41.151Z,99438.63
2023-04-15T20:02:09.814Z,99446.88
2023-04-15T20:04:38.484Z,99434.84
2023-04-15T20:07:07.215Z,99448.91
2023-04-15T20:09:35.612Z,99447.16
2023-04-15T20:12:44.937Z,99452.19
2023-04-15T20:14:53.685Z,99455.72
2023-04-15T20:17:22.272Z,99344.59
2023-04-15T20:19:50.783Z,99458.75
2023-04-15T20:22:19.302Z,99455.66
2023-04-15T20:24:47.934Z,99465.88
2023-04-15T20:27:16.440Z,99469.97
2023-04-15T20:29:44.889Z,99476.50
2023-04-15T20:32:13.771Z,99472.28
2023-04-15T20:34:42.703Z,99476.53
2023-04-15T20:37:12.381Z,99474.06
2023-04-15T20:39:42.062Z,99474.87
2023-04-15T20:42:10.564Z,99474.22
2023-04-15T20:44:39.877Z,99467.59
2023-04-15T20:47:08.620Z,99480.69
2023-04-15T20:49:38.535Z,99486.44
2023-04-15T20:52:08.421Z,99483.72
2023-04-15T20:54:37.151Z,99483.06
2023-04-15T20:57:05.293Z,99496.06
2023-04-15T20:59:34.979Z,99491.88
2023-04-15T21:02:03.684Z,99496.38
2023-04-15T21:04:31.924Z,99495.41
2023-04-15T21:07:00.313Z,99501.69
2023-04-15T21:09:29.012Z,99504.00
2023-04-15T21:12:01.492Z,99495.84
2023-04-15T21:14:30.984Z,99499.78
2023-04-15T21:16:59.269Z,99492.84
2023-04-15T21:19:27.416Z,99501.69
2023-04-15T21:21:56.403Z,99502.22
2023-04-15T21:24:24.615Z,99511.19
2023-04-15T21:26:52.883Z,99510.59
2023-04-15T21:29:21.476Z,99518.50
2023-04-15T21:31:50.407Z,99512.63
2023-04-15T21:34:18.899Z,99513.59
2023-04-15T21:36:47.832Z,99523.94
2023-04-15T21:39:17.162Z,99524.34
2023-04-15T21:41:45.820Z,99517.44
2023-04-15T21:44:15.178Z,99527.00
2023-04-15T21:46:45.780Z,99537.63
2023-04-15T21:49:14.737Z,99535.75
2023-04-15T21:51:42.958Z,99533.03
2023-04-15T21:54:11.127Z,99539.41
2023-04-15T21:56:39.858Z,99542.72
2023-04-15T21:59:08.962Z,99538.78
2023-04-15T22:01:47.413Z,99538.78
2023-04-15T22:04:16.660Z,99532.09
2023-04-15T22:06:44.911Z,99543.13
2023-04-15T22:09:14.505Z,99546.69
2023-04-15T22:11:43.147Z,99552.09
2023-04-15T22:14:11.391Z,99550.19
2023-04-15T22:16:39.702Z,99552.66
2023-04-15T22:19:08.946Z,99563.00
2023-04-15T22:21:37.136Z,99553.72
2023-04-15T22:24:31.770Z,99553.72
2023-04-15T22:26:54.307Z,99558.78
2023-04-15T22:29:22.603Z,99559.63
2023-04-15T22:31:51.108Z,99548.69
2023-04-15T22:34:22.683Z,99564.03
2023-04-15T22:36:52.279Z,99565.13
2023-04-15T22:39:21.114Z,99568.09
2023-04-15T22:41:49.900Z,99560.75
2023-04-15T22:44:18.386Z,99570.16
2023-04-15T22:46:46.837Z,99569.47
2023-04-15T22:49:14.964Z,99566.75
2023-04-15T22:51:43.702Z,99561.94
2023-04-15T22:54:12.215Z,99572.31
2023-04-15T22:56:40.881Z,99571.38
2023-04-15T22:59:09.225Z,99574.03
2023-04-15T23:01:38.391Z,99572.28
2023-04-15T23:04:10.110Z,99577.84
2023-04-15T23:06:52.440Z,99573.59
2023-04-15T23:09:21.473Z,99581.69
2023-04-15T23:11:49.716Z,99574.28
2023-04-15T23:14:18.539Z,99577.72
2023-04-15T23:16:46.826Z,99578.03
2023-04-15T23:19:14.884Z,99579.50
2023-04-15T23:21:43.504Z,99581.03
2023-04-15T23:24:12.352Z,99583.47
2023-04-15T23:26:40.836Z,99578.56
2023-04-15T23:29:09.835Z,99581.75
2023-04-15T23:31:39.412Z,99573.28
2023-04-15T23:34:07.822Z,99569.63
2023-04-15T23:36:36.312Z,99577.38
2023-04-15T23:39:04.781Z,99575.94
2023-04-15T23:41:33.098Z,99571.72
2023-04-15T23:44:01.610Z,99577.97
2023-04-15T23:46:30.136Z,99572.78
2023-04-15T23:48:58.404Z,99579.53
2023-04-15T23:51:27.029Z,99586.03
2023-04-15T23:53:55.476Z,99583.69
2023-04-15T23:56:23.630Z,99524.72
2023-04-15T23:58:52.162Z,99588.56
